createdAt,value
2018-05-26T00:00:41.097Z,74.59
2018-05-26T00:03:07.637Z,74.87
2018-05-26T00:05:34.026Z,74.62
2018-05-26T00:08:00.453Z,74.10
2018-05-26T00:10:26.887Z,74.54
2018-05-26T00:12:53.240Z,73.42
2018-05-26T00:15:19.652Z,73.67
2018-05-26T00:17:46.070Z,72.92
2018-05-26T00:20:12.707Z,73.64
2018-05-26T00:22:39.226Z,73.94
2018-05-26T00:25:05.678Z,73.68
2018-05-26T00:27:32.061Z,73.32
2018-05-26T00:29:58.442Z,74.31
2018-05-26T00:32:24.856Z,73.57
2018-05-26T00:34:51.248Z,73.42
2018-05-26T00:37:17.605Z,73.06
2018-05-26T00:39:44.014Z,72.98
2018-05-26T00:42:10.447Z,73.09
2018-05-26T00:44:36.872Z,72.92
2018-05-26T00:47:03.896Z,72.73
2018-05-26T00:49:30.406Z,73.07
2018-05-26T00:51:56.762Z,72.77
2018-05-26T00:54:23.150Z,72.58
2018-05-26T00:56:49.531Z,72.65
2018-05-26T00:59:15.976Z,72.14
2018-05-26T01:01:42.374Z,72.51
2018-05-26T01:04:08.738Z,72.06
2018-05-26T01:06:35.130Z,71.46
2018-05-26T01:09:01.510Z,71.14
2018-05-26T01:11:27.942Z,70.61
2018-05-26T01:13:54.318Z,70.89
2018-05-26T01:16:20.688Z,71.30
2018-05-26T01:18:47.122Z,70.72
2018-05-26T01:21:13.485Z,70.85
2018-05-26T01:23:39.858Z,70.37
2018-05-26T01:26:06.205Z,70.87
2018-05-26T01:28:32.577Z,70.50
2018-05-26T01:30:58.937Z,70.56
2018-05-26T01:33:25.333Z,71.02
2018-05-26T01:35:51.700Z,71.63
2018-05-26T01:38:18.121Z,71.78
2018-05-26T01:40:44.484Z,71.73
2018-05-26T01:43:10.918Z,71.81
2018-05-26T01:45:37.452Z,71.82
2018-05-26T01:48:03.954Z,72.47
2018-05-26T01:50:30.362Z,72.64
2018-05-26T01:52:56.758Z,73.22
2018-05-26T01:55:23.105Z,73.72
2018-05-26T01:57:49.577Z,74.04
2018-05-26T02:00:15.981Z,74.07
2018-05-26T02:02:42.387Z,74.23
2018-05-26T02:05:08.797Z,73.68
2018-05-26T02:07:35.251Z,74.52
2018-05-26T02:10:01.635Z,74.41
2018-05-26T02:12:28.033Z,75.08
2018-05-26T02:14:54.394Z,74.83
2018-05-26T02:17:20.883Z,75.11
2018-05-26T02:19:47.281Z,74.68
2018-05-26T02:22:13.756Z,75.17
2018-05-26T02:24:40.161Z,76.17
2018-05-26T02:27:06.591Z,76.66
2018-05-26T02:29:32.974Z,76.98
2018-05-26T02:31:59.337Z,77.08
2018-05-26T02:34:25.744Z,76.96
2018-05-26T02:36:52.090Z,76.68
2018-05-26T02:39:18.464Z,75.81
2018-05-26T02:41:44.841Z,75.97
2018-05-26T02:44:11.228Z,75.64
2018-05-26T02:46:37.638Z,75.76
2018-05-26T02:49:04.029Z,76.06
2018-05-26T02:51:31.209Z,75.76
2018-05-26T02:53:57.690Z,75.79
2018-05-26T02:56:24.099Z,75.83
2018-05-26T02:58:50.744Z,75.47
2018-05-26T03:01:17.132Z,75.68
2018-05-26T03:03:43.456Z,75.80
2018-05-26T03:06:15.969Z,75.24
2018-05-26T03:08:48.407Z,75.61
2018-05-26T03:11:20.918Z,74.95
2018-05-26T03:13:53.342Z,75.55
2018-05-26T03:16:19.774Z,75.98
2018-05-26T03:18:46.166Z,76.08
2018-05-26T03:21:12.605Z,76.02
2018-05-26T03:23:39.022Z,76.05
2018-05-26T03:26:06.015Z,76.56
2018-05-26T03:28:33.410Z,76.51
2018-05-26T03:30:59.799Z,76.80
2018-05-26T03:33:26.190Z,76.61
2018-05-26T03:35:52.659Z,76.86
2018-05-26T03:38:19.006Z,76.95
2018-05-26T03:40:46.325Z,76.14
2018-05-26T03:43:12.705Z,76.14
2018-05-26T03:45:39.126Z,75.73
2018-05-26T03:48:05.478Z,75.79
2018-05-26T03:50:31.842Z,76.20
2018-05-26T03:52:58.204Z,76.54
2018-05-26T03:55:37.558Z,76.29
2018-05-26T03:58:16.126Z,75.82
2018-05-26T04:00:42.430Z,75.26
2018-05-26T04:03:08.851Z,74.73
2018-05-26T04:05:35.236Z,74.01
2018-05-26T04:08:01.629Z,74.30
2018-05-26T04:10:28.066Z,73.23
2018-05-26T04:12:54.454Z,73.38
2018-05-26T04:15:20.914Z,73.11
2018-05-26T04:17:48.274Z,73.17
2018-05-26T04:20:14.725Z,72.97
2018-05-26T04:22:41.212Z,72.93
2018-05-26T04:25:07.569Z,72.54
2018-05-26T04:27:33.970Z,72.85
2018-05-26T04:30:00.376Z,73.62
2018-05-26T04:32:26.775Z,73.40
2018-05-26T04:34:53.134Z,73.06
2018-05-26T04:37:19.534Z,72.30
2018-05-26T04:39:45.917Z,73.09
2018-05-26T04:42:13.196Z,73.24
2018-05-26T04:44:39.558Z,73.07
2018-05-26T04:47:06.112Z,73.13
2018-05-26T04:49:32.476Z,73.45
2018-05-26T04:51:58.839Z,73.35
2018-05-26T04:54:25.230Z,73.49
2018-05-26T04:56:51.692Z,72.91
2018-05-26T04:59:18.069Z,73.30
2018-05-26T05:01:44.465Z,73.38
2018-05-26T05:04:10.833Z,72.90
2018-05-26T05:06:37.762Z,72.45
2018-05-26T05:09:04.202Z,72.20
2018-05-26T05:11:30.578Z,72.13
2018-05-26T05:13:57.009Z,71.89
2018-05-26T05:16:23.408Z,71.06
2018-05-26T05:18:49.796Z,70.21
2018-05-26T05:21:16.190Z,70.17
2018-05-26T05:23:42.639Z,69.50
2018-05-26T05:26:09.042Z,69.33
2018-05-26T05:28:35.424Z,69.54
2018-05-26T05:31:01.834Z,68.69
2018-05-26T05:33:28.294Z,68.54
2018-05-26T05:35:54.694Z,68.14
2018-05-26T05:38:21.078Z,67.90
2018-05-26T05:40:47.425Z,66.75
2018-05-26T05:43:13.962Z,66.49
2018-05-26T05:45:40.397Z,65.66
2018-05-26T05:48:06.854Z,65.70
2018-05-26T05:50:33.840Z,65.69
2018-05-26T05:53:01.165Z,65.39
2018-05-26T05:55:27.549Z,64.86
2018-05-26T05:57:53.947Z,64.19
2018-05-26T06:00:20.469Z,64.43
2018-05-26T06:02:46.902Z,64.53
2018-05-26T06:05:13.340Z,64.10
2018-05-26T06:07:40.636Z,63.72
2018-05-26T06:10:07.227Z,63.49
2018-05-26T06:12:33.603Z,63.47
2018-05-26T06:15:00.063Z,63.86
2018-05-26T06:17:26.394Z,63.65
2018-05-26T06:19:52.810Z,62.82
2018-05-26T06:22:19.318Z,63.31
2018-05-26T06:24:45.711Z,61.95
2018-05-26T06:27:12.082Z,62.42
2018-05-26T06:29:39.042Z,62.02
2018-05-26T06:32:05.565Z,62.44
2018-05-26T06:34:31.956Z,62.76
2018-05-26T06:36:58.502Z,63.41
2018-05-26T06:39:24.882Z,63.08
2018-05-26T06:41:51.362Z,62.25
2018-05-26T06:44:18.070Z,62.09
2018-05-26T06:46:44.425Z,62.61
2018-05-26T06:49:10.785Z,62.77
2018-05-26T06:51:37.225Z,62.67
2018-05-26T06:54:03.833Z,63.54
2018-05-26T06:56:30.321Z,63.75
2018-05-26T06:58:56.681Z,63.99
2018-05-26T07:01:23.161Z,64.42
2018-05-26T07:03:49.692Z,64.39
2018-05-26T07:06:16.078Z,64.42
2018-05-26T07:08:42.449Z,63.78
2018-05-26T07:11:09.014Z,64.54
2018-05-26T07:13:35.548Z,64.37
2018-05-26T07:16:01.976Z,64.88
2018-05-26T07:18:28.422Z,64.63
2018-05-26T07:20:54.825Z,63.66
2018-05-26T07:23:21.707Z,63.59
2018-05-26T07:25:48.462Z,63.14
2018-05-26T07:28:14.875Z,63.38
2018-05-26T07:30:41.399Z,62.76
2018-05-26T07:33:08.444Z,61.81
2018-05-26T07:35:34.886Z,61.87
2018-05-26T07:38:01.302Z,62.25
2018-05-26T07:40:27.679Z,62.47
2018-05-26T07:42:54.999Z,63.35
2018-05-26T07:45:21.378Z,62.72
2018-05-26T07:47:47.793Z,63.01
2018-05-26T07:50:14.169Z,63.60
2018-05-26T07:52:40.590Z,64.18
2018-05-26T07:55:07.769Z,62.74
2018-05-26T07:57:34.190Z,62.04
2018-05-26T08:00:00.605Z,61.52
2018-05-26T08:02:26.989Z,61.40
2018-05-26T08:04:55.409Z,60.70
2018-05-26T08:07:21.848Z,59.41
2018-05-26T08:09:48.405Z,57.21
2018-05-26T08:12:14.867Z,56.77
2018-05-26T08:14:41.253Z,56.49
2018-05-26T08:17:07.825Z,57.21
2018-05-26T08:19:34.253Z,57.40
2018-05-26T08:22:00.606Z,57.45
2018-05-26T08:24:27.008Z,56.56
2018-05-26T08:26:53.441Z,57.00
2018-05-26T08:29:19.834Z,57.29
2018-05-26T08:31:46.435Z,57.70
2018-05-26T08:34:12.990Z,57.48
2018-05-26T08:36:39.417Z,58.30
2018-05-26T08:39:05.818Z,59.12
2018-05-26T08:41:32.477Z,58.86
2018-05-26T08:43:58.860Z,59.27
2018-05-26T08:46:25.413Z,58.61
2018-05-26T08:48:51.862Z,58.98
2018-05-26T08:51:18.210Z,59.92
2018-05-26T08:53:45.555Z,59.68
2018-05-26T08:56:12.358Z,59.98
2018-05-26T08:58:38.902Z,59.68
2018-05-26T09:01:05.350Z,59.50
2018-05-26T09:03:31.811Z,59.56
2018-05-26T09:05:58.475Z,60.23
2018-05-26T09:08:24.862Z,59.71
2018-05-26T09:10:51.266Z,57.58
2018-05-26T09:13:17.664Z,57.15
2018-05-26T09:15:44.034Z,57.71
2018-05-26T09:18:10.443Z,56.88
2018-05-26T09:20:36.875Z,57.22
2018-05-26T09:23:03.246Z,56.69
2018-05-26T09:25:29.684Z,57.28
2018-05-26T09:27:56.147Z,56.27
2018-05-26T09:30:23.485Z,56.08
2018-05-26T09:32:49.903Z,56.04
2018-05-26T09:35:16.274Z,57.48
2018-05-26T09:37:42.613Z,55.74
2018-05-26T09:40:09.033Z,56.18
2018-05-26T09:42:35.476Z,54.76
2018-05-26T09:45:01.846Z,55.29
2018-05-26T09:47:29.868Z,55.17
2018-05-26T09:49:56.301Z,54.97
2018-05-26T09:52:22.710Z,55.80
2018-05-26T09:54:49.106Z,56.04
2018-05-26T09:57:15.504Z,55.64
2018-05-26T09:59:41.910Z,55.41
2018-05-26T10:02:08.299Z,55.43
2018-05-26T10:04:34.734Z,56.78
2018-05-26T10:07:01.116Z,56.34
2018-05-26T10:09:27.471Z,55.63
2018-05-26T10:11:53.896Z,55.28
2018-05-26T10:14:20.321Z,56.20
2018-05-26T10:16:46.714Z,56.17
2018-05-26T10:19:13.114Z,56.42
2018-05-26T10:21:39.683Z,57.87
2018-05-26T10:24:06.094Z,56.67
2018-05-26T10:26:32.517Z,51.46
2018-05-26T10:28:58.929Z,47.90
2018-05-26T10:31:25.465Z,49.49
2018-05-26T10:33:52.017Z,52.57
2018-05-26T10:36:18.375Z,53.04
2018-05-26T10:38:44.790Z,47.07
2018-05-26T10:41:11.213Z,48.47
2018-05-26T10:43:37.559Z,51.38
2018-05-26T10:46:16.208Z,48.83
2018-05-26T10:48:42.504Z,48.15
2018-05-26T10:51:08.914Z,51.97
2018-05-26T10:53:35.209Z,49.73
2018-05-26T10:56:01.538Z,51.13
2018-05-26T10:58:27.848Z,49.97
2018-05-26T11:00:54.171Z,46.69
2018-05-26T11:03:21.494Z,47.95
2018-05-26T11:05:47.754Z,48.62
2018-05-26T11:08:14.090Z,51.53
2018-05-26T11:10:40.442Z,46.52
2018-05-26T11:13:06.789Z,51.80
2018-05-26T11:15:33.120Z,52.02
2018-05-26T11:17:59.746Z,45.83
2018-05-26T11:20:26.220Z,47.51
2018-05-26T11:22:52.743Z,44.13
2018-05-26T11:25:19.059Z,44.88
2018-05-26T11:27:45.539Z,50.07
2018-05-26T11:30:11.916Z,42.20
2018-05-26T11:32:38.826Z,51.93
2018-05-26T11:35:05.158Z,42.52
2018-05-26T11:37:31.650Z,46.44
2018-05-26T11:39:57.934Z,43.88
2018-05-26T11:42:24.271Z,41.46
2018-05-26T11:44:50.657Z,43.54
2018-05-26T11:47:17.185Z,48.07
2018-05-26T11:49:43.494Z,40.91
2018-05-26T11:52:09.834Z,42.31
2018-05-26T11:54:36.187Z,43.24
2018-05-26T11:57:02.488Z,42.64
2018-05-26T11:59:28.825Z,41.39
2018-05-26T12:01:55.170Z,45.27
2018-05-26T12:04:21.594Z,48.23
2018-05-26T12:06:47.921Z,42.34
2018-05-26T12:09:14.255Z,44.88
2018-05-26T12:11:41.273Z,44.46
2018-05-26T12:14:07.626Z,39.44
2018-05-26T12:16:33.938Z,40.06
2018-05-26T12:19:00.290Z,42.22
2018-05-26T12:21:26.595Z,43.19
2018-05-26T12:23:52.940Z,41.38
2018-05-26T12:26:19.286Z,41.21
2018-05-26T12:28:45.646Z,47.38
2018-05-26T12:31:11.934Z,42.59
2018-05-26T12:33:38.261Z,39.81
2018-05-26T12:36:04.609Z,45.55
2018-05-26T12:38:31.065Z,40.41
2018-05-26T12:40:57.394Z,44.22
2018-05-26T12:43:23.831Z,43.28
2018-05-26T12:45:50.141Z,47.74
2018-05-26T12:48:17.066Z,44.94
2018-05-26T12:50:43.410Z,41.79
2018-05-26T12:53:09.753Z,43.06
2018-05-26T12:55:36.238Z,42.84
2018-05-26T12:58:02.739Z,44.37
2018-05-26T13:00:29.053Z,46.44
2018-05-26T13:02:55.584Z,41.75
2018-05-26T13:05:22.963Z,47.38
2018-05-26T13:07:49.326Z,41.12
2018-05-26T13:10:15.738Z,41.79
2018-05-26T13:12:42.078Z,41.51
2018-05-26T13:15:08.491Z,40.11
2018-05-26T13:17:34.841Z,41.43
2018-05-26T13:20:01.222Z,44.36
2018-05-26T13:22:29.209Z,44.49
2018-05-26T13:24:55.685Z,44.67
2018-05-26T13:27:22.044Z,47.65
2018-05-26T13:29:48.380Z,44.22
2018-05-26T13:32:14.743Z,43.95
2018-05-26T13:34:41.032Z,49.50
2018-05-26T13:37:07.377Z,44.15
2018-05-26T13:39:33.722Z,48.24
2018-05-26T13:42:00.067Z,43.41
2018-05-26T13:44:26.478Z,47.11
2018-05-26T13:46:52.992Z,45.11
2018-05-26T13:49:19.409Z,46.54
2018-05-26T13:51:46.794Z,48.50
2018-05-26T13:54:13.159Z,48.75
2018-05-26T13:56:39.557Z,50.42
2018-05-26T13:59:05.966Z,54.70
2018-05-26T14:01:32.373Z,59.69
2018-05-26T14:04:29.959Z,62.29
2018-05-26T14:06:56.305Z,61.40
2018-05-26T14:09:22.872Z,62.84
2018-05-26T14:11:49.386Z,63.32
2018-05-26T14:14:15.841Z,67.97
2018-05-26T14:17:18.255Z,64.42
2018-05-26T14:19:46.625Z,66.09
2018-05-26T14:22:13.066Z,65.15
2018-05-26T14:24:39.497Z,64.63
2018-05-26T14:27:05.903Z,63.14
2018-05-26T14:29:32.453Z,64.96
2018-05-26T14:31:58.827Z,63.19
2018-05-26T14:34:25.333Z,64.39
2018-05-26T14:36:51.673Z,62.00
2018-05-26T14:39:18.079Z,61.64
2018-05-26T14:41:44.501Z,61.63
2018-05-26T14:44:10.893Z,61.84
2018-05-26T14:46:37.317Z,60.79
2018-05-26T14:49:04.356Z,59.50
2018-05-26T14:51:30.777Z,58.90
2018-05-26T14:53:57.285Z,59.77
2018-05-26T14:56:24.565Z,60.04
2018-05-26T14:58:50.972Z,59.75
2018-05-26T15:01:17.415Z,59.82
2018-05-26T15:03:43.794Z,58.72
2018-05-26T15:06:10.241Z,59.42
2018-05-26T15:08:36.627Z,59.59
2018-05-26T15:11:03.041Z,58.55
2018-05-26T15:13:29.453Z,59.08
2018-05-26T15:15:55.964Z,57.87
2018-05-26T15:18:22.382Z,58.15
2018-05-26T15:20:48.739Z,57.97
2018-05-26T15:23:15.154Z,57.95
2018-05-26T15:25:41.547Z,57.88
2018-05-26T15:28:07.997Z,57.31
2018-05-26T15:30:34.414Z,58.46
2018-05-26T15:33:00.902Z,57.48
2018-05-26T15:35:27.294Z,57.30
2018-05-26T15:37:53.681Z,56.30
2018-05-26T15:40:20.059Z,55.80
2018-05-26T15:42:46.596Z,57.07
2018-05-26T15:45:13.034Z,57.23
2018-05-26T15:47:39.446Z,56.54
2018-05-26T15:50:05.823Z,56.35
2018-05-26T15:52:32.229Z,55.74
2018-05-26T15:54:58.635Z,55.48
2018-05-26T15:57:24.993Z,56.35
2018-05-26T15:59:51.427Z,56.96
2018-05-26T16:02:17.885Z,56.36
2018-05-26T16:04:44.331Z,56.22
2018-05-26T16:07:10.713Z,55.80
2018-05-26T16:09:37.076Z,56.96
2018-05-26T16:12:03.489Z,56.24
2018-05-26T16:14:29.882Z,56.79
2018-05-26T16:16:56.360Z,56.69
2018-05-26T16:19:22.862Z,56.48
2018-05-26T16:21:49.228Z,57.43
2018-05-26T16:24:15.601Z,56.79
2018-05-26T16:26:41.948Z,56.34
2018-05-26T16:29:08.374Z,56.17
2018-05-26T16:31:34.856Z,56.69
2018-05-26T16:34:01.279Z,56.02
2018-05-26T16:36:27.644Z,56.22
2018-05-26T16:38:54.041Z,57.11
2018-05-26T16:41:20.402Z,58.09
2018-05-26T16:43:46.833Z,56.53
2018-05-26T16:46:13.214Z,56.56
2018-05-26T16:48:39.612Z,56.44
2018-05-26T16:51:06.009Z,55.78
2018-05-26T16:53:32.431Z,56.97
2018-05-26T16:55:58.853Z,55.03
2018-05-26T16:58:25.254Z,54.96
2018-05-26T17:00:51.619Z,56.06
2018-05-26T17:03:18.012Z,55.25
2018-05-26T17:05:44.413Z,55.58
2018-05-26T17:08:10.898Z,56.25
2018-05-26T17:10:37.293Z,54.95
2018-05-26T17:13:03.720Z,56.83
2018-05-26T17:15:30.108Z,56.92
2018-05-26T17:17:56.454Z,56.81
2018-05-26T17:20:22.792Z,56.90
2018-05-26T17:22:49.197Z,57.45
2018-05-26T17:25:15.582Z,57.28
2018-05-26T17:27:42.185Z,58.23
2018-05-26T17:30:08.574Z,58.58
2018-05-26T17:32:35.007Z,57.97
2018-05-26T17:35:01.518Z,58.59
2018-05-26T17:37:28.109Z,58.82
2018-05-26T17:39:54.511Z,58.62
2018-05-26T17:42:20.917Z,58.45
2018-05-26T17:44:47.350Z,58.75
2018-05-26T17:47:13.758Z,59.06
2018-05-26T17:49:40.158Z,59.50
2018-05-26T17:52:06.558Z,58.72
2018-05-26T17:54:32.981Z,59.88
2018-05-26T17:56:59.354Z,60.05
2018-05-26T17:59:25.744Z,59.71
2018-05-26T18:01:52.154Z,59.68
2018-05-26T18:04:18.529Z,60.06
2018-05-26T18:06:44.915Z,60.21
2018-05-26T18:09:11.292Z,60.47
2018-05-26T18:11:37.690Z,60.83
2018-05-26T18:14:04.070Z,61.07
2018-05-26T18:16:30.522Z,61.48
2018-05-26T18:18:56.894Z,61.16
2018-05-26T18:21:23.310Z,61.39
2018-05-26T18:23:49.777Z,61.63
2018-05-26T18:26:16.312Z,61.45
2018-05-26T18:28:42.745Z,61.54
2018-05-26T18:31:09.130Z,61.25
2018-05-26T18:33:36.553Z,62.56
2018-05-26T18:36:02.938Z,62.21
2018-05-26T18:38:29.403Z,62.35
2018-05-26T18:40:55.745Z,62.21
2018-05-26T18:43:22.141Z,61.40
2018-05-26T18:45:48.514Z,62.00
2018-05-26T18:48:14.902Z,62.96
2018-05-26T18:50:41.310Z,62.15
2018-05-26T18:53:07.694Z,63.17
2018-05-26T18:55:34.127Z,63.21
2018-05-26T18:58:00.457Z,63.45
2018-05-26T19:00:26.854Z,63.73
2018-05-26T19:02:53.254Z,63.09
2018-05-26T19:05:19.642Z,63.29
2018-05-26T19:07:46.006Z,63.44
2018-05-26T19:10:13.369Z,63.62
2018-05-26T19:12:39.723Z,63.99
2018-05-26T19:15:06.088Z,63.96
2018-05-26T19:17:32.419Z,64.25
2018-05-26T19:19:58.846Z,63.76
2018-05-26T19:22:25.157Z,63.75
2018-05-26T19:24:51.532Z,63.88
2018-05-26T19:27:17.881Z,63.57
2018-05-26T19:29:44.246Z,63.93
2018-05-26T19:32:10.590Z,65.43
2018-05-26T19:34:36.962Z,64.94
2018-05-26T19:37:03.406Z,64.62
2018-05-26T19:39:29.774Z,64.78
2018-05-26T19:41:56.134Z,64.90
2018-05-26T19:44:22.461Z,64.91
2018-05-26T19:46:48.865Z,64.90
2018-05-26T19:49:15.254Z,66.25
2018-05-26T19:51:41.695Z,66.53
2018-05-26T19:54:08.070Z,65.83
2018-05-26T19:56:34.452Z,65.24
2018-05-26T19:59:00.886Z,65.72
2018-05-26T20:01:27.298Z,66.53
2018-05-26T20:03:53.626Z,67.02
2018-05-26T20:06:20.001Z,67.90
2018-05-26T20:08:46.400Z,68.50
2018-05-26T20:11:12.746Z,69.55
2018-05-26T20:13:39.154Z,69.91
2018-05-26T20:16:05.546Z,69.58
2018-05-26T20:18:31.883Z,70.33
2018-05-26T20:20:58.283Z,70.82
2018-05-26T20:23:24.642Z,71.43
2018-05-26T20:25:51.014Z,71.63
2018-05-26T20:28:17.398Z,72.06
2018-05-26T20:30:43.785Z,71.88
2018-05-26T20:33:10.212Z,71.73
2018-05-26T20:35:36.598Z,71.59
2018-05-26T20:38:03.003Z,72.20
2018-05-26T20:40:29.389Z,72.07
2018-05-26T20:42:55.750Z,72.41
2018-05-26T20:45:22.149Z,72.51
2018-05-26T20:47:48.496Z,72.56
2018-05-26T20:50:14.987Z,73.27
2018-05-26T20:52:41.378Z,74.06
2018-05-26T20:55:07.935Z,74.42
2018-05-26T20:57:34.333Z,74.69
2018-05-26T21:00:00.881Z,74.96
2018-05-26T21:02:27.287Z,75.15
2018-05-26T21:04:53.668Z,74.98
2018-05-26T21:07:20.022Z,75.43
2018-05-26T21:09:46.413Z,74.51
2018-05-26T21:12:12.803Z,73.46
2018-05-26T21:14:40.025Z,72.73
2018-05-26T21:17:06.391Z,72.13
2018-05-26T21:19:32.762Z,72.17
2018-05-26T21:21:59.217Z,72.34
2018-05-26T21:24:25.599Z,72.87
2018-05-26T21:26:51.962Z,72.83
2018-05-26T21:29:18.358Z,72.92
2018-05-26T21:31:44.758Z,73.45
2018-05-26T21:34:11.194Z,73.33
2018-05-26T21:36:37.561Z,73.80
2018-05-26T21:39:04.946Z,73.76
2018-05-26T21:41:31.321Z,73.73
2018-05-26T21:43:57.706Z,72.83
2018-05-26T21:46:24.177Z,73.10
2018-05-26T21:48:50.573Z,72.36
2018-05-26T21:51:17.033Z,72.27
2018-05-26T21:53:43.389Z,71.55
2018-05-26T21:56:09.726Z,72.03
2018-05-26T21:58:36.133Z,72.12
2018-05-26T22:01:02.566Z,72.23
2018-05-26T22:03:29.041Z,71.69
2018-05-26T22:05:55.424Z,71.90
2018-05-26T22:08:21.832Z,73.35
2018-05-26T22:10:48.221Z,74.35
2018-05-26T22:13:14.625Z,73.98
2018-05-26T22:15:41.104Z,74.97
2018-05-26T22:18:07.533Z,75.82
2018-05-26T22:20:33.905Z,76.11
2018-05-26T22:23:00.326Z,76.49
2018-05-26T22:25:26.742Z,77.01
2018-05-26T22:27:53.110Z,77.27
2018-05-26T22:30:19.493Z,77.85
2018-05-26T22:32:45.892Z,76.66
2018-05-26T22:35:12.253Z,76.53
2018-05-26T22:37:38.618Z,76.76
2018-05-26T22:40:05.089Z,76.62
2018-05-26T22:42:31.455Z,76.91
2018-05-26T22:44:57.934Z,77.98
2018-05-26T22:47:24.338Z,77.92
2018-05-26T22:49:50.692Z,78.15
2018-05-26T22:52:17.072Z,78.28
2018-05-26T22:54:43.461Z,78.16
2018-05-26T22:57:09.845Z,78.98
2018-05-26T22:59:36.296Z,79.55
2018-05-26T23:02:03.429Z,79.06
2018-05-26T23:04:29.819Z,79.23
2018-05-26T23:06:56.252Z,79.45
2018-05-26T23:09:22.637Z,79.70
2018-05-26T23:11:49.017Z,79.52
2018-05-26T23:14:15.370Z,79.73
2018-05-26T23:16:41.800Z,79.15
2018-05-26T23:19:08.151Z,78.26
2018-05-26T23:21:34.505Z,78.04
2018-05-26T23:24:00.871Z,78.02
2018-05-26T23:26:27.217Z,78.41
2018-05-26T23:28:53.580Z,78.48
2018-05-26T23:31:21.444Z,77.51
2018-05-26T23:33:47.809Z,76.76
2018-05-26T23:36:14.174Z,75.69
2018-05-26T23:38:40.511Z,75.57
2018-05-26T23:41:06.904Z,75.50
2018-05-26T23:43:33.297Z,75.48
2018-05-26T23:45:59.714Z,75.67
2018-05-26T23:48:26.098Z,75.82
2018-05-26T23:50:52.485Z,76.10
2018-05-26T23:53:18.857Z,76.36
2018-05-26T23:55:45.202Z,77.20
2018-05-26T23:58:11.561Z,77.60
